Time;durP1;ratioP1;P1;durP2;ratioP2;P2;SDS_P1;SDS_P2;PMS_P1;PMS_P2;Temp;Humidity;BMP_temperature;BMP_pressure;BME280_temperature;BME280_humidity;BME280_pressure;Samples;Min_cycle;Max_cycle;Signal;HPM_P1;HPM_P2
2021/05/18 00:01:08;;;;;;;12.33;8.83;;;14.30;97.10;;;;;;4962417;28;20452;-78
2021/05/18 00:03:59;;;;;;;12.73;7.13;;;14.30;96.90;;;;;;4952665;29;20498;-79
2021/05/18 00:06:30;;;;;;;13.73;7.50;;;14.40;96.80;;;;;;4949471;29;20479;-78
2021/05/18 00:11:46;;;;;;;13.40;9.20;;;14.30;97.10;;;;;;4949297;29;20468;-78
2021/05/18 00:14:33;;;;;;;9.27;7.37;;;14.20;97.40;;;;;;4949208;29;20688;-78
2021/05/18 00:17:06;;;;;;;11.00;8.10;;;14.10;98.00;;;;;;4933765;29;21001;-79
2021/05/18 00:19:52;;;;;;;10.07;7.60;;;14.20;98.00;;;;;;4949158;29;20549;-79
2021/05/18 00:22:36;;;;;;;7.60;6.67;;;13.90;98.60;;;;;;4949668;29;20473;-78
2021/05/18 00:25:14;;;;;;;9.40;7.10;;;13.70;99.30;;;;;;4938894;28;20496;-79
2021/05/18 00:27:46;;;;;;;10.37;7.70;;;13.80;99.80;;;;;;5010070;28;20454;-80
2021/05/18 00:30:14;;;;;;;8.50;7.37;;;13.80;99.50;;;;;;5008486;28;20468;-79
2021/05/18 00:32:42;;;;;;;8.90;6.40;;;13.70;99.90;;;;;;5008086;28;20490;-81
2021/05/18 00:35:12;;;;;;;6.53;5.93;;;13.70;99.90;;;;;;5006980;28;20453;-81
2021/05/18 00:37:51;;;;;;;7.03;6.33;;;13.60;99.90;;;;;;5006132;28;20454;-80
2021/05/18 00:40:24;;;;;;;9.40;6.73;;;13.70;99.90;;;;;;5006889;28;20450;-79
2021/05/18 00:42:58;;;;;;;9.07;7.83;;;13.70;99.90;;;;;;5007025;28;20977;-79
2021/05/18 00:45:43;;;;;;;10.53;7.03;;;13.60;99.90;;;;;;5006859;28;20805;-80
2021/05/18 00:48:10;;;;;;;7.80;7.00;;;13.60;99.90;;;;;;5006979;28;20846;-80
2021/05/18 00:51:34;;;;;;;9.63;7.37;;;13.60;99.90;;;;;;5005485;28;20462;-80
2021/05/18 00:54:16;;;;;;;7.10;6.40;;;13.60;99.90;;;;;;5005584;28;21068;-80
2021/05/18 00:59:37;;;;;;;6.90;6.10;;;13.50;99.90;;;;;;5008284;28;20514;-80
2021/05/18 01:02:10;;;;;;;7.07;5.37;;;13.60;99.90;;;;;;5006965;28;20469;-79
2021/05/18 01:04:43;;;;;;;9.43;6.73;;;13.60;99.90;;;;;;5005867;28;20488;-81
2021/05/18 01:07:13;;;;;;;6.83;6.17;;;13.60;99.90;;;;;;5007790;28;20562;-80
2021/05/18 01:09:40;;;;;;;6.43;5.83;;;13.60;99.90;;;;;;5007639;28;21199;-80
2021/05/18 01:12:07;;;;;;;7.77;6.13;;;13.60;99.90;;;;;;5008682;28;20508;-79
2021/05/18 01:14:35;;;;;;;7.47;6.67;;;13.60;99.90;;;;;;5009259;28;20537;-79
2021/05/18 01:17:03;;;;;;;6.37;5.77;;;13.60;99.90;;;;;;5007750;28;20448;-79
2021/05/18 01:19:31;;;;;;;6.43;5.83;;;13.60;99.90;;;;;;5011410;28;20450;-79
2021/05/18 01:22:01;;;;;;;7.13;4.73;;;13.70;99.90;;;;;;5009983;28;20511;-79
2021/05/18 01:24:28;;;;;;;7.13;6.53;;;13.70;99.90;;;;;;5005411;28;20574;-80
2021/05/18 01:27:02;;;;;;;6.17;5.50;;;13.60;99.90;;;;;;5006169;28;20725;-79
2021/05/18 01:29:38;;;;;;;7.37;4.73;;;13.60;99.90;;;;;;5004742;28;20541;-80
2021/05/18 01:32:19;;;;;;;5.20;4.80;;;13.50;99.90;;;;;;5007646;28;20474;-79
2021/05/18 01:35:08;;;;;;;6.47;5.30;;;13.50;99.90;;;;;;5006771;28;20639;-79
2021/05/18 01:37:45;;;;;;;7.30;5.53;;;13.50;99.90;;;;;;5006209;28;20581;-80
2021/05/18 01:42:45;;;;;;;5.40;4.90;;;13.60;99.90;;;;;;5004158;28;20569;-80
2021/05/18 01:43:05;;;;;;;6.20;5.50;;;13.60;99.90;;;;;;5007750;28;20565;-81
2021/05/18 01:45:32;;;;;;;6.10;5.37;;;13.50;99.90;;;;;;5010111;28;20534;-78
2021/05/18 01:48:10;;;;;;;6.23;4.67;;;13.40;99.90;;;;;;5010343;28;20458;-77
2021/05/18 01:50:40;;;;;;;5.50;4.90;;;13.50;99.90;;;;;;5020301;28;21448;-79
2021/05/18 01:53:08;;;;;;;5.00;4.50;;;13.60;99.90;;;;;;5021685;28;20473;-80
2021/05/18 01:56:04;;;;;;;5.20;4.37;;;13.60;99.90;;;;;;5010939;28;20465;-78
2021/05/18 01:58:25;;;;;;;5.87;5.20;;;13.40;99.90;;;;;;5024886;28;20461;-78
2021/05/18 02:00:52;;;;;;;5.17;4.70;;;13.40;99.90;;;;;;5024927;28;20522;-78
2021/05/18 02:03:19;;;;;;;5.37;4.87;;;13.40;99.90;;;;;;5013834;28;20542;-80
2021/05/18 02:05:46;;;;;;;5.37;4.20;;;13.40;99.90;;;;;;5004403;28;20520;-80
2021/05/18 02:08:14;;;;;;;5.47;4.37;;;13.40;99.90;;;;;;5003001;28;20454;-79
2021/05/18 02:10:41;;;;;;;4.40;3.97;;;13.30;99.90;;;;;;5019693;28;20458;-79
2021/05/18 02:13:10;;;;;;;4.43;4.13;;;13.30;99.90;;;;;;5004212;28;20508;-78
2021/05/18 02:26:20;;;;;;;4.37;3.80;;;13.20;99.90;;;;;;5007058;28;20469;-79
2021/05/18 02:28:48;;;;;;;6.07;3.90;;;13.20;99.90;;;;;;5009146;28;20468;-79
2021/05/18 02:31:17;;;;;;;4.37;3.40;;;13.40;99.90;;;;;;5008751;28;20478;-81
2021/05/18 02:33:51;;;;;;;6.60;4.27;;;13.30;99.90;;;;;;5006737;28;20505;-80
2021/05/18 02:36:23;;;;;;;5.00;3.60;;;13.30;99.90;;;;;;5005395;28;20842;-80
2021/05/18 02:39:07;;;;;;;6.10;3.53;;;13.40;99.90;;;;;;5006499;28;20489;-80
2021/05/18 02:41:40;;;;;;;5.80;3.70;;;13.30;99.90;;;;;;4987769;28;20450;-80
2021/05/18 02:44:21;;;;;;;6.50;3.13;;;13.20;99.90;;;;;;5005989;28;21136;-80
2021/05/18 02:49:52;;;;;;;7.83;3.47;;;13.10;99.90;;;;;;5007649;28;20480;-80
2021/05/18 02:52:22;;;;;;;4.67;4.07;;;13.20;99.90;;;;;;5009691;28;21147;-81
2021/05/18 02:54:56;;;;;;;4.90;3.10;;;13.10;99.90;;;;;;5010669;28;20484;-79
2021/05/18 02:57:32;;;;;;;3.83;3.03;;;13.10;99.90;;;;;;5015740;28;20448;-80
2021/05/18 03:00:13;;;;;;;4.87;3.20;;;13.10;99.90;;;;;;5023274;28;20517;-79
2021/05/18 03:02:52;;;;;;;7.03;3.40;;;13.10;99.90;;;;;;5018321;28;20486;-80
2021/05/18 03:05:25;;;;;;;3.57;2.77;;;13.10;99.90;;;;;;5010919;28;20558;-80
2021/05/18 03:07:59;;;;;;;5.60;3.50;;;13.10;99.90;;;;;;5011164;28;20462;-80
2021/05/18 03:10:29;;;;;;;6.80;3.50;;;13.00;99.90;;;;;;5013249;28;20482;-77
2021/05/18 03:13:02;;;;;;;6.40;2.47;;;13.10;99.90;;;;;;5013373;28;20497;-76
2021/05/18 03:15:36;;;;;;;3.70;2.80;;;13.10;99.90;;;;;;5014280;28;20611;-78
2021/05/18 03:18:03;;;;;;;7.80;3.07;;;13.10;99.90;;;;;;5017347;28;20458;-78
2021/05/18 03:20:33;;;;;;;4.80;3.17;;;13.10;99.90;;;;;;5009642;28;20470;-78
2021/05/18 03:23:14;;;;;;;5.00;2.90;;;13.10;99.90;;;;;;5013909;28;20443;-77
2021/05/18 03:25:58;;;;;;;4.23;3.37;;;13.10;99.90;;;;;;5017800;28;20621;-79
2021/05/18 03:28:28;;;;;;;8.80;2.70;;;13.00;99.90;;;;;;5025106;28;20513;-79
2021/05/18 03:36:13;;;;;;;5.07;2.37;;;13.20;99.90;;;;;;5028146;28;20450;-78
2021/05/18 03:38:45;;;;;;;4.33;2.60;;;13.10;99.90;;;;;;5027944;28;20438;-79
2021/05/18 03:41:23;;;;;;;2.83;2.60;;;13.10;99.90;;;;;;5021761;28;20445;-77
2021/05/18 03:52:20;;;;;;;8.47;2.60;;;13.00;99.90;;;;;;5000256;28;20462;-79
2021/05/18 03:54:59;;;;;;;6.80;2.77;;;13.00;99.90;;;;;;5033570;28;20441;-78
2021/05/18 04:03:09;;;;;;;6.67;3.10;;;13.30;99.90;;;;;;5019380;28;20982;-78
2021/05/18 04:18:33;;;;;;;5.10;2.40;;;13.10;99.90;;;;;;5007172;28;20545;-80
2021/05/18 04:21:15;;;;;;;4.60;2.70;;;13.10;99.90;;;;;;5006968;28;20635;-78
2021/05/18 04:23:52;;;;;;;3.73;2.50;;;13.10;99.90;;;;;;5007660;28;20496;-79
2021/05/18 04:50:54;;;;;;;3.53;2.87;;;13.40;99.90;;;;;;5006631;28;20955;-79
2021/05/18 04:59:05;;;;;;;8.90;3.17;;;13.10;99.90;;;;;;5009470;28;20470;-79
2021/05/18 05:07:08;;;;;;;5.83;3.20;;;13.50;99.90;;;;;;5010238;28;20458;-79
2021/05/18 05:09:37;;;;;;;4.70;3.00;;;13.90;99.80;;;;;;5009151;28;20458;-81
2021/05/18 05:12:39;;;;;;;4.87;3.30;;;13.80;99.80;;;;;;5010307;28;20478;-81
2021/05/18 05:15:04;;;;;;;4.87;2.80;;;13.90;99.60;;;;;;5009358;28;20561;-80
2021/05/18 05:17:31;;;;;;;5.50;3.67;;;13.80;99.80;;;;;;5009696;28;20510;-78
2021/05/18 05:19:59;;;;;;;5.43;3.70;;;13.70;99.90;;;;;;5009206;28;20454;-78
2021/05/18 05:22:25;;;;;;;5.67;3.40;;;13.60;99.90;;;;;;5008820;28;20501;-81
2021/05/18 05:24:52;;;;;;;7.23;2.93;;;13.50;99.90;;;;;;5006698;28;20573;-78
2021/05/18 05:27:20;;;;;;;7.73;3.50;;;13.50;99.90;;;;;;5008353;28;20458;-80
2021/05/18 05:29:59;;;;;;;8.33;4.10;;;13.30;99.90;;;;;;5011031;28;20442;-80
2021/05/18 05:32:26;;;;;;;4.70;2.90;;;13.30;99.90;;;;;;5012258;28;20481;-78
2021/05/18 05:34:53;;;;;;;7.07;3.60;;;13.30;99.90;;;;;;5010784;28;20458;-78
2021/05/18 05:37:20;;;;;;;8.07;3.23;;;13.30;99.90;;;;;;5011757;28;20474;-80
2021/05/18 05:39:47;;;;;;;6.87;3.77;;;13.40;99.90;;;;;;5011793;28;20498;-81
2021/05/18 05:42:15;;;;;;;8.90;5.13;;;13.50;99.90;;;;;;5020488;28;20482;-79
2021/05/18 05:44:43;;;;;;;7.27;3.70;;;13.80;99.90;;;;;;5024512;28;20509;-77
2021/05/18 05:47:10;;;;;;;6.63;3.43;;;14.20;99.90;;;;;;5017189;28;20457;-80
2021/05/18 05:49:37;;;;;;;9.10;3.10;;;14.40;98.90;;;;;;5018257;28;20488;-78
2021/05/18 05:52:05;;;;;;;5.37;2.67;;;14.10;99.00;;;;;;5027247;28;20576;-80
2021/05/18 05:54:34;;;;;;;4.77;2.20;;;13.90;99.60;;;;;;5026092;28;20446;-81
2021/05/18 05:57:01;;;;;;;4.93;3.30;;;13.70;99.90;;;;;;5027729;28;20438;-79
2021/05/18 05:59:29;;;;;;;4.40;2.20;;;13.80;99.90;;;;;;5021960;28;20482;-79
2021/05/18 06:01:56;;;;;;;5.73;2.90;;;13.80;99.90;;;;;;5014831;28;20527;-80
2021/05/18 06:04:22;;;;;;;3.30;2.30;;;13.60;99.90;;;;;;5013812;28;20485;-79
2021/05/18 06:06:49;;;;;;;3.17;2.40;;;13.80;99.90;;;;;;5010466;28;20537;-79
2021/05/18 06:09:16;;;;;;;4.70;2.63;;;13.50;99.90;;;;;;5009343;28;20461;-80
2021/05/18 06:17:13;;;;;;;3.50;2.23;;;13.10;99.90;;;;;;5010845;28;20457;-78
2021/05/18 06:49:34;;;;;;;3.73;3.07;;;13.00;99.90;;;;;;5011682;28;20487;-79
2021/05/18 06:52:02;;;;;;;4.37;2.60;;;12.90;99.90;;;;;;5012793;28;20470;-78
2021/05/18 06:54:29;;;;;;;3.40;3.10;;;13.30;99.90;;;;;;5011430;28;20855;-79
2021/05/18 06:56:59;;;;;;;8.80;4.50;;;13.10;99.90;;;;;;5008947;28;20526;-80
2021/05/18 07:01:56;;;;;;;3.40;3.10;;;12.90;99.90;;;;;;5009988;28;20597;-81
2021/05/18 07:04:24;;;;;;;5.73;3.97;;;12.90;99.90;;;;;;5011972;28;20521;-79
2021/05/18 07:07:13;;;;;;;6.20;3.60;;;13.20;99.90;;;;;;5012891;28;20523;-81
2021/05/18 07:09:40;;;;;;;5.33;3.63;;;13.20;99.90;;;;;;5011954;28;20481;-80
2021/05/18 07:12:08;;;;;;;4.17;3.40;;;13.40;99.90;;;;;;5016504;28;20470;-79
2021/05/18 07:14:35;;;;;;;5.50;4.00;;;13.80;99.90;;;;;;5027702;28;20456;-80
2021/05/18 07:17:02;;;;;;;7.73;4.83;;;13.90;99.90;;;;;;5018154;28;20454;-81
2021/05/18 07:19:29;;;;;;;10.33;5.27;;;14.00;99.90;;;;;;5011821;28;20538;-81
2021/05/18 07:21:56;;;;;;;7.97;5.67;;;14.10;99.90;;;;;;5011664;28;20573;-80
2021/05/18 07:24:28;;;;;;;10.77;6.17;;;14.10;99.90;;;;;;5009068;28;20462;-79
2021/05/18 07:27:02;;;;;;;10.87;5.53;;;14.00;99.90;;;;;;5010448;28;20450;-81
2021/05/18 07:29:29;;;;;;;7.00;5.10;;;13.90;99.90;;;;;;5009578;28;21021;-79
2021/05/18 07:31:56;;;;;;;6.50;5.80;;;14.00;99.90;;;;;;5010543;28;20588;-81
2021/05/18 07:34:22;;;;;;;7.23;5.53;;;14.10;99.90;;;;;;5010494;28;20473;-79
2021/05/18 07:36:49;;;;;;;6.73;5.53;;;14.30;99.90;;;;;;5013714;28;20493;-81
2021/05/18 07:39:20;;;;;;;6.50;5.70;;;14.30;99.90;;;;;;5017081;28;20442;-79
2021/05/18 07:41:46;;;;;;;9.07;5.90;;;14.30;99.90;;;;;;5024572;28;20458;-80
2021/05/18 07:44:13;;;;;;;6.90;6.20;;;14.70;99.90;;;;;;5027486;28;20460;-79
2021/05/18 07:46:41;;;;;;;7.83;7.03;;;15.00;99.90;;;;;;5028571;28;20462;-81
2021/05/18 07:49:14;;;;;;;7.80;6.53;;;15.10;99.90;;;;;;5020411;28;20963;-80
2021/05/18 07:59:15;;;;;;;11.23;7.30;;;16.10;99.90;;;;;;5013483;28;20454;-80
2021/05/18 08:02:26;;;;;;;13.27;7.27;;;15.90;99.90;;;;;;5017287;28;20481;-79
2021/05/18 08:07:40;;;;;;;6.93;6.17;;;16.10;99.90;;;;;;5016140;28;20454;-79
2021/05/18 08:10:12;;;;;;;8.70;6.33;;;16.30;99.90;;;;;;5011498;28;20508;-78
2021/05/18 08:12:39;;;;;;;9.27;5.70;;;16.80;99.70;;;;;;5010882;28;20478;-77
2021/05/18 08:18:12;;;;;;;6.83;6.13;;;17.40;96.50;;;;;;5015197;28;20466;-78
2021/05/18 10:26:39;;;;;;;7.30;4.40;;;18.30;91.40;;;;;;5011745;28;20470;-80
2021/05/18 10:36:36;;;;;;;5.13;3.90;;;20.00;86.40;;;;;;5010579;28;20492;-78
2021/05/18 10:39:24;;;;;;;4.13;3.60;;;19.80;84.60;;;;;;5011034;28;20456;-80
2021/05/18 10:41:52;;;;;;;3.10;2.87;;;19.20;84.50;;;;;;5008481;28;20477;-80
2021/05/18 10:44:20;;;;;;;3.47;3.17;;;18.60;88.50;;;;;;5007611;28;20482;-80
2021/05/18 10:46:57;;;;;;;4.50;3.40;;;18.00;88.90;;;;;;5010516;28;20639;-79
2021/05/18 10:49:53;;;;;;;4.60;3.20;;;17.70;90.00;;;;;;5007829;28;20460;-79
2021/05/18 10:52:36;;;;;;;3.30;3.00;;;18.50;89.10;;;;;;5008184;28;20481;-82
2021/05/18 10:55:07;;;;;;;3.80;3.50;;;18.60;88.50;;;;;;5007320;28;20458;-78
2021/05/18 10:57:34;;;;;;;3.97;3.67;;;19.10;87.60;;;;;;5006436;28;21231;-82
2021/05/18 11:00:07;;;;;;;5.43;3.63;;;18.60;88.30;;;;;;5008759;28;20497;-80
2021/05/18 11:02:38;;;;;;;3.50;3.20;;;18.40;89.50;;;;;;5010086;28;20476;-79
2021/05/18 11:05:11;;;;;;;3.90;3.60;;;18.50;89.20;;;;;;5011002;28;20458;-79
2021/05/18 11:07:47;;;;;;;5.90;4.57;;;18.80;88.40;;;;;;5011109;28;20467;-80
2021/05/18 11:10:16;;;;;;;5.77;4.37;;;18.80;87.70;;;;;;5009868;28;20464;-80
2021/05/18 11:12:54;;;;;;;4.13;3.83;;;18.70;88.70;;;;;;5008091;28;20512;-80
2021/05/18 11:15:25;;;;;;;4.93;4.53;;;19.20;88.90;;;;;;5007139;28;20446;-81
2021/05/18 11:17:53;;;;;;;3.83;3.53;;;18.90;87.70;;;;;;5008964;28;20458;-77
2021/05/18 11:23:23;;;;;;;4.10;3.70;;;19.50;86.00;;;;;;5013840;28;20549;-79
2021/05/18 11:26:07;;;;;;;3.93;3.63;;;19.10;85.00;;;;;;5013639;28;20550;-79
2021/05/18 11:28:49;;;;;;;4.50;4.10;;;19.00;84.70;;;;;;5011286;28;20446;-80
2021/05/18 11:31:19;;;;;;;3.90;3.40;;;18.80;84.00;;;;;;5012516;28;20470;-81
2021/05/18 11:33:48;;;;;;;3.53;3.27;;;18.50;84.90;;;;;;5015651;28;20594;-78
2021/05/18 11:36:28;;;;;;;4.63;3.10;;;18.20;86.30;;;;;;5012958;28;20454;-80
2021/05/18 11:39:02;;;;;;;4.53;3.73;;;18.00;86.60;;;;;;5013956;28;20458;-79
2021/05/18 11:41:31;;;;;;;3.97;3.57;;;17.70;87.90;;;;;;5011006;28;20458;-82
2021/05/18 11:43:59;;;;;;;3.83;3.43;;;17.50;88.30;;;;;;5013418;28;20454;-79
2021/05/18 11:46:29;;;;;;;14.03;3.90;;;17.40;87.70;;;;;;5013740;28;20482;-79
2021/05/18 11:49:08;;;;;;;4.00;3.60;;;17.50;88.70;;;;;;5011827;28;20453;-80
2021/05/18 11:51:47;;;;;;;4.50;3.33;;;17.70;87.80;;;;;;5011553;28;20469;-79
2021/05/18 11:54:34;;;;;;;4.13;3.53;;;17.90;88.40;;;;;;5027230;28;20493;-81
2021/05/18 11:57:01;;;;;;;4.57;3.77;;;18.00;84.90;;;;;;5017416;28;20448;-80
2021/05/18 11:59:28;;;;;;;4.20;3.80;;;18.00;84.50;;;;;;5016362;28;20493;-79
2021/05/18 12:02:01;;;;;;;4.90;4.50;;;18.00;85.40;;;;;;5016556;28;20565;-78
2021/05/18 12:04:30;;;;;;;5.37;4.17;;;18.20;87.30;;;;;;5013794;28;20449;-79
2021/05/18 12:07:02;;;;;;;3.90;3.60;;;18.60;87.10;;;;;;5014552;28;20528;-79
2021/05/18 12:09:33;;;;;;;5.40;4.90;;;19.30;85.50;;;;;;5014744;28;20453;-79
2021/05/18 12:12:07;;;;;;;6.13;3.87;;;19.80;81.80;;;;;;5013820;28;20520;-79
2021/05/18 12:14:43;;;;;;;4.30;3.43;;;19.20;82.80;;;;;;5015081;28;20831;-79
2021/05/18 12:17:10;;;;;;;3.70;3.40;;;18.60;84.40;;;;;;5017556;28;20462;-79
2021/05/18 12:19:40;;;;;;;2.67;2.47;;;18.30;85.40;;;;;;5017479;28;20497;-79
2021/05/18 12:22:07;;;;;;;4.33;2.57;;;18.30;84.30;;;;;;5016996;28;20489;-78
2021/05/18 12:24:43;;;;;;;3.73;2.70;;;18.50;83.70;;;;;;5013723;28;20568;-79
2021/05/18 12:27:11;;;;;;;2.90;2.70;;;18.80;82.10;;;;;;5014795;28;20481;-79
2021/05/18 12:29:52;;;;;;;3.53;2.83;;;19.00;81.70;;;;;;5011984;28;20512;-79
2021/05/18 12:32:24;;;;;;;3.60;3.30;;;19.30;80.90;;;;;;5015537;28;20474;-80
2021/05/18 12:34:55;;;;;;;2.80;2.50;;;19.60;80.10;;;;;;5008866;28;20450;-80
2021/05/18 12:37:43;;;;;;;3.83;3.47;;;19.90;80.00;;;;;;5026005;28;20450;-80
2021/05/18 12:40:19;;;;;;;3.50;3.20;;;21.20;75.80;;;;;;5009325;28;20466;-80
2021/05/18 12:42:48;;;;;;;3.00;2.80;;;21.30;73.30;;;;;;5008592;28;20481;-78
2021/05/18 12:45:21;;;;;;;4.50;3.40;;;20.70;72.50;;;;;;5009578;28;20553;-80
2021/05/18 12:47:57;;;;;;;4.20;3.50;;;20.70;72.90;;;;;;5007418;28;20548;-79
2021/05/18 12:50:36;;;;;;;4.00;3.50;;;20.70;74.30;;;;;;5007225;28;20482;-80
2021/05/18 12:53:04;;;;;;;4.47;4.03;;;20.70;75.10;;;;;;5009297;28;20604;-80
2021/05/18 12:55:31;;;;;;;6.40;5.40;;;21.20;74.50;;;;;;5006681;28;20493;-80
2021/05/18 12:58:09;;;;;;;4.87;4.43;;;21.50;73.30;;;;;;5006150;28;21309;-80
2021/05/18 13:00:49;;;;;;;7.53;6.93;;;21.40;74.20;;;;;;5006124;28;20454;-80
2021/05/18 13:03:22;;;;;;;7.03;5.07;;;22.00;72.20;;;;;;5008129;28;20508;-80
2021/05/18 13:06:07;;;;;;;10.37;5.33;;;21.00;72.50;;;;;;5006610;28;20637;-80
2021/05/18 13:09:25;;;;;;;5.13;4.73;;;21.20;73.30;;;;;;5006200;28;20506;-80
2021/05/18 13:12:12;;;;;;;4.60;4.20;;;21.10;72.20;;;;;;5007827;28;21103;-80
2021/05/18 13:15:03;;;;;;;4.50;4.13;;;20.90;73.50;;;;;;5008940;28;20438;-80
2021/05/18 13:21:39;;;;;;;4.57;4.17;;;20.70;73.20;;;;;;5018041;28;20576;-78
2021/05/18 13:26:48;;;;;;;4.23;3.93;;;20.70;70.80;;;;;;5020303;28;20486;-79
2021/05/18 13:29:23;;;;;;;5.20;4.73;;;20.30;70.90;;;;;;5019753;28;20466;-79
2021/05/18 13:31:55;;;;;;;5.77;5.30;;;19.80;70.20;;;;;;5024500;28;20472;-78
2021/05/18 13:34:39;;;;;;;5.27;4.77;;;19.40;72.90;;;;;;5025764;28;20465;-79
2021/05/18 13:37:09;;;;;;;5.67;5.17;;;18.80;75.20;;;;;;5020675;28;20447;-80
2021/05/18 13:39:42;;;;;;;6.87;6.37;;;18.40;78.90;;;;;;5024961;28;20453;-80
2021/05/18 13:42:35;;;;;;;6.70;6.10;;;18.10;80.40;;;;;;5026692;28;20477;-81
2021/05/18 13:45:06;;;;;;;6.83;6.10;;;18.10;84.30;;;;;;5025390;28;20450;-79
2021/05/18 13:47:38;;;;;;;6.53;6.00;;;18.10;87.30;;;;;;5019801;28;20504;-81
2021/05/18 13:53:37;;;;;;;6.23;5.73;;;18.30;89.60;;;;;;5008962;28;20550;-80
2021/05/18 13:56:10;;;;;;;7.10;6.43;;;18.70;87.10;;;;;;5009950;28;20466;-81
2021/05/18 13:59:19;;;;;;;6.90;5.67;;;18.90;86.60;;;;;;5011944;28;20445;-80
2021/05/18 14:01:54;;;;;;;7.10;6.50;;;18.90;87.40;;;;;;5011959;28;20477;-80
2021/05/18 14:05:02;;;;;;;11.50;6.67;;;18.80;85.80;;;;;;5020586;28;20742;-80
2021/05/18 14:08:39;;;;;;;6.73;6.13;;;18.80;86.10;;;;;;5006300;28;20488;-80
2021/05/18 14:11:24;;;;;;;6.97;6.30;;;18.60;88.50;;;;;;4930686;29;21695;-78
2021/05/18 14:14:11;;;;;;;7.13;6.60;;;18.60;89.00;;;;;;4921853;29;20601;-80
2021/05/18 14:17:05;;;;;;;8.27;7.57;;;18.80;87.30;;;;;;4999115;28;20468;-80
2021/05/18 14:19:38;;;;;;;7.57;6.87;;;18.70;87.80;;;;;;4988922;28;20442;-81
2021/05/18 14:22:13;;;;;;;7.23;6.63;;;18.80;86.70;;;;;;5018200;28;21541;-78
2021/05/18 14:25:04;;;;;;;7.30;6.60;;;18.60;87.70;;;;;;5005200;28;20470;-79
2021/05/18 14:28:26;;;;;;;6.90;6.30;;;18.80;87.80;;;;;;5005567;28;20594;-80
2021/05/18 14:31:13;;;;;;;7.60;6.67;;;18.60;87.30;;;;;;5005560;28;20853;-79
2021/05/18 14:33:57;;;;;;;7.70;7.03;;;18.50;87.50;;;;;;5006799;28;20450;-81
2021/05/18 14:36:32;;;;;;;7.30;6.60;;;18.60;87.60;;;;;;5007169;28;20516;-78
2021/05/18 14:39:21;;;;;;;7.40;6.70;;;18.50;88.10;;;;;;5007014;28;20458;-78
2021/05/18 14:44:53;;;;;;;9.40;8.60;;;18.60;90.20;;;;;;5006590;28;20457;-79
2021/05/18 14:47:23;;;;;;;10.30;9.30;;;18.80;91.10;;;;;;5007336;28;20512;-80
2021/05/18 14:55:48;;;;;;;9.90;8.77;;;18.10;93.50;;;;;;5007781;28;20498;-80
2021/05/18 14:58:41;;;;;;;9.77;8.23;;;17.90;93.50;;;;;;5005530;28;20462;-80
2021/05/18 15:01:11;;;;;;;9.80;8.90;;;17.90;92.40;;;;;;5004915;28;20489;-81
2021/05/18 15:03:52;;;;;;;9.33;8.43;;;17.80;93.60;;;;;;5007508;28;20489;-80
2021/05/18 15:06:30;;;;;;;7.50;6.67;;;17.70;93.80;;;;;;5008796;28;20538;-79
2021/05/18 15:09:18;;;;;;;9.37;7.90;;;17.60;93.00;;;;;;5010007;28;20474;-80
2021/05/18 15:12:21;;;;;;;;;;;;;;;;;;;;;
2021/05/18 15:15:02;;;;;;;8.10;6.53;;;17.30;93.30;;;;;;5005982;28;20466;-80
2021/05/18 15:17:46;;;;;;;8.50;7.73;;;17.20;92.50;;;;;;4997951;28;20455;-81
2021/05/18 15:20:20;;;;;;;7.23;6.60;;;17.10;92.50;;;;;;5007132;28;21756;-79
2021/05/18 15:23:02;;;;;;;9.13;7.33;;;17.10;92.90;;;;;;5007887;28;20724;-80
2021/05/18 15:25:34;;;;;;;9.90;8.90;;;17.40;93.30;;;;;;5010586;28;20457;-80
2021/05/18 15:28:14;;;;;;;8.73;7.33;;;17.40;93.60;;;;;;5012319;28;20473;-79
2021/05/18 15:30:57;;;;;;;9.37;8.47;;;17.10;93.10;;;;;;5012706;28;20497;-82
2021/05/18 15:33:44;;;;;;;9.13;8.27;;;16.70;93.60;;;;;;5011160;28;20474;-81
2021/05/18 15:37:00;;;;;;;8.03;7.23;;;16.50;94.60;;;;;;5008207;28;20458;-80
2021/05/18 15:39:39;;;;;;;8.60;7.37;;;16.40;95.70;;;;;;5002711;28;20446;-80
2021/05/18 15:42:12;;;;;;;7.50;6.90;;;16.40;97.00;;;;;;5009923;28;20481;-80
2021/05/18 15:44:51;;;;;;;6.40;5.80;;;16.40;97.40;;;;;;5012157;28;20508;-80
2021/05/18 15:47:30;;;;;;;7.23;6.53;;;16.40;96.00;;;;;;5015737;28;20481;-80
2021/05/18 15:49:59;;;;;;;6.70;6.10;;;16.40;95.70;;;;;;5012853;28;20596;-79
2021/05/18 15:52:40;;;;;;;6.73;6.23;;;16.20;95.80;;;;;;5012837;28;20524;-79
2021/05/18 15:55:31;;;;;;;6.50;5.90;;;16.20;95.20;;;;;;5014605;28;20465;-80
2021/05/18 15:58:04;;;;;;;6.53;6.00;;;16.20;95.10;;;;;;5017607;28;20789;-79
2021/05/18 16:00:48;;;;;;;7.40;6.70;;;16.20;94.70;;;;;;5015417;28;20485;-80
2021/05/18 16:03:18;;;;;;;7.50;6.80;;;16.00;95.30;;;;;;5017702;28;20548;-77
2021/05/18 16:06:13;;;;;;;7.40;6.70;;;15.90;95.90;;;;;;5020373;28;20434;-79
2021/05/18 16:11:39;;;;;;;7.07;6.47;;;15.70;97.00;;;;;;5015813;28;20430;-80
2021/05/18 16:14:18;;;;;;;7.60;6.90;;;15.80;97.00;;;;;;5014176;28;20454;-79
2021/05/18 16:17:05;;;;;;;11.00;7.23;;;15.90;96.00;;;;;;5013225;28;20460;-80
2021/05/18 16:19:56;;;;;;;7.20;6.50;;;16.00;95.60;;;;;;5013064;28;20465;-80
2021/05/18 16:22:40;;;;;;;7.10;6.40;;;16.00;96.10;;;;;;5015476;28;20486;-80
2021/05/18 16:25:19;;;;;;;7.20;6.50;;;16.20;96.00;;;;;;5011233;28;20462;-80
2021/05/18 16:27:53;;;;;;;8.80;6.27;;;16.40;94.80;;;;;;5014394;28;20490;-80
2021/05/18 16:31:00;;;;;;;7.20;6.60;;;16.30;95.00;;;;;;5014841;28;20528;-80
2021/05/18 16:33:41;;;;;;;6.70;6.10;;;16.60;95.40;;;;;;5004379;28;20467;-78
2021/05/18 16:36:15;;;;;;;7.07;6.47;;;16.60;95.30;;;;;;5016761;28;20889;-80
2021/05/18 16:38:46;;;;;;;7.37;6.63;;;16.60;95.50;;;;;;5018609;28;20454;-81
2021/05/18 16:44:51;;;;;;;6.67;6.07;;;16.80;93.90;;;;;;5013087;28;20524;-81
2021/05/18 16:47:23;;;;;;;7.53;6.93;;;16.80;93.60;;;;;;5011393;28;20517;-79
2021/05/18 16:50:07;;;;;;;6.17;5.30;;;16.80;93.00;;;;;;5020844;28;20473;-80
2021/05/18 16:52:58;;;;;;;5.73;5.03;;;16.80;92.40;;;;;;5018394;28;20477;-76
2021/05/18 16:55:31;;;;;;;6.13;5.63;;;16.90;92.40;;;;;;5016860;28;20784;-79
2021/05/18 16:58:08;;;;;;;7.73;5.73;;;17.00;92.30;;;;;;5018416;28;20439;-79
2021/05/18 17:00:46;;;;;;;6.70;6.20;;;17.10;92.10;;;;;;5021777;28;20521;-78
2021/05/18 17:03:19;;;;;;;6.27;5.67;;;16.90;92.80;;;;;;5021897;28;20465;-79
2021/05/18 17:06:12;;;;;;;5.37;4.50;;;16.80;93.30;;;;;;5029968;28;20426;-78
2021/05/18 17:08:58;;;;;;;5.47;5.07;;;16.70;91.10;;;;;;5029269;28;20501;-78
2021/05/18 17:11:35;;;;;;;7.63;5.40;;;16.80;91.40;;;;;;5026167;28;20454;-77
2021/05/18 17:14:15;;;;;;;5.37;4.90;;;16.90;90.70;;;;;;5032553;28;20509;-77
2021/05/18 17:16:55;;;;;;;6.17;5.30;;;16.70;90.30;;;;;;5033126;28;20458;-78
2021/05/18 17:19:25;;;;;;;5.70;5.13;;;16.60;90.20;;;;;;5026861;28;20508;-77
2021/05/18 17:22:05;;;;;;;5.87;5.27;;;16.80;90.50;;;;;;5034447;28;20449;-79
2021/05/18 17:24:39;;;;;;;5.70;5.17;;;16.90;90.60;;;;;;5032487;28;20437;-79
2021/05/18 17:27:14;;;;;;;6.03;5.50;;;16.60;90.80;;;;;;5032725;28;20546;-77
2021/05/18 17:29:47;;;;;;;5.67;5.17;;;16.50;90.90;;;;;;5030577;28;20453;-78
2021/05/18 17:32:18;;;;;;;5.47;4.97;;;16.60;91.00;;;;;;5045051;28;20470;-79
2021/05/18 17:34:52;;;;;;;5.57;4.90;;;16.50;91.40;;;;;;5042992;28;20438;-79
2021/05/18 17:37:42;;;;;;;5.23;4.73;;;16.30;91.90;;;;;;5015152;28;20437;-79
2021/05/18 17:40:18;;;;;;;6.20;5.60;;;16.30;91.70;;;;;;5022377;28;20470;-79
2021/05/18 17:42:56;;;;;;;4.97;4.60;;;16.10;91.80;;;;;;5014770;28;21018;-81
2021/05/18 17:45:42;;;;;;;5.20;4.70;;;15.90;92.50;;;;;;5008876;28;20462;-80
2021/05/18 17:48:16;;;;;;;6.03;4.80;;;15.90;92.50;;;;;;5009613;28;20516;-80
2021/05/18 17:50:47;;;;;;;5.00;4.53;;;16.30;92.20;;;;;;5009071;28;20442;-79
2021/05/18 17:53:16;;;;;;;5.20;4.70;;;16.30;92.70;;;;;;5011041;28;20498;-79
2021/05/18 17:55:53;;;;;;;6.97;4.50;;;16.20;93.30;;;;;;5010214;28;20507;-78
2021/05/18 17:58:30;;;;;;;5.37;4.97;;;16.10;93.80;;;;;;5010025;28;20501;-78
2021/05/18 18:01:06;;;;;;;5.77;5.33;;;15.90;94.60;;;;;;5012870;28;21000;-79
2021/05/18 18:03:51;;;;;;;6.07;4.40;;;15.90;95.00;;;;;;4984098;28;20935;-79
2021/05/18 18:06:23;;;;;;;6.23;5.73;;;16.00;95.60;;;;;;5013092;28;20478;-80
2021/05/18 18:09:05;;;;;;;5.87;5.37;;;16.20;95.20;;;;;;5012145;28;20536;-78
2021/05/18 18:11:43;;;;;;;6.23;5.70;;;16.10;94.80;;;;;;5015925;28;20443;-80
2021/05/18 18:14:17;;;;;;;7.70;5.77;;;16.20;94.50;;;;;;5010092;28;20450;-79
2021/05/18 18:16:53;;;;;;;5.60;5.13;;;16.20;93.90;;;;;;5011671;28;20442;-79
2021/05/18 18:19:25;;;;;;;6.07;5.57;;;16.20;94.00;;;;;;5011880;28;20505;-78
2021/05/18 18:21:56;;;;;;;6.90;6.30;;;16.00;93.70;;;;;;5013171;28;20484;-80
2021/05/18 18:24:44;;;;;;;6.50;5.73;;;16.00;94.20;;;;;;5010648;28;20441;-80
2021/05/18 18:27:16;;;;;;;8.40;6.40;;;16.10;94.20;;;;;;5014024;28;20442;-80
2021/05/18 18:29:46;;;;;;;6.30;5.57;;;16.10;94.30;;;;;;5015382;28;20469;-78
2021/05/18 18:32:18;;;;;;;6.53;5.90;;;16.10;94.40;;;;;;5015049;28;20995;-78